Time;durP1;ratioP1;P1;durP2;ratioP2;P2;SDS_P1;SDS_P2;PMS_P1;PMS_P2;Temp;Humidity;BMP_temperature;BMP_pressure;BME280_temperature;BME280_humidity;BME280_pressure;Samples;Min_cycle;Max_cycle;Signal;HPM_P1;HPM_P2
2022/09/06 00:01:17;;;;;;;;;;;20.00;99.90;;;;;;5069495;28;20598;-69
2022/09/06 00:03:45;;;;;;;;;;;20.00;99.90;;;;;;5069606;28;19978;-71
2022/09/06 00:06:14;;;;;;;;;;;20.00;99.90;;;;;;5069349;28;19925;-71
2022/09/06 00:08:41;;;;;;;;;;;20.00;99.90;;;;;;5069676;28;20347;-71
2022/09/06 00:11:08;;;;;;;;;;;20.00;99.90;;;;;;5078863;28;19928;-71
2022/09/06 00:13:35;;;;;;;;;;;20.00;99.90;;;;;;5089587;28;19935;-71
2022/09/06 00:16:08;;;;;;;;;;;20.00;99.90;;;;;;5074670;28;19928;-71
2022/09/06 00:18:35;;;;;;;;;;;20.10;99.90;;;;;;5051471;28;19928;-71
2022/09/06 00:21:02;;;;;;;;;;;20.10;99.90;;;;;;5068763;28;19928;-71
2022/09/06 00:23:30;;;;;;;;;;;20.10;99.90;;;;;;5069666;28;19925;-70
2022/09/06 00:26:01;;;;;;;;;;;20.20;99.90;;;;;;5069606;28;20392;-71
2022/09/06 00:28:28;;;;;;;;;;;20.20;99.90;;;;;;5069742;28;20472;-70
2022/09/06 00:30:54;;;;;;;;;;;20.20;99.90;;;;;;5071471;28;19928;-70
2022/09/06 00:33:21;;;;;;;;;;;20.40;99.90;;;;;;5069105;28;20065;-71
2022/09/06 00:35:48;;;;;;;;;;;20.60;99.90;;;;;;5069151;28;19928;-70
2022/09/06 00:38:14;;;;;;;;;;;20.60;99.90;;;;;;5068764;28;20430;-69
2022/09/06 00:40:43;;;;;;;;;;;20.70;99.90;;;;;;5076305;28;20412;-68
2022/09/06 00:43:09;;;;;;;;;;;20.80;99.90;;;;;;5074583;28;20304;-69
2022/09/06 00:45:36;;;;;;;;;;;20.90;99.90;;;;;;5068882;28;20575;-69
2022/09/06 00:48:04;;;;;;;;;;;21.00;99.90;;;;;;5068505;28;20343;-69
2022/09/06 00:50:31;;;;;;;;;;;21.00;99.90;;;;;;5068898;28;19990;-69
2022/09/06 00:52:58;;;;;;;;;;;21.00;99.90;;;;;;5068577;28;19929;-69
2022/09/06 00:55:25;;;;;;;;;;;21.00;99.90;;;;;;5068964;28;19924;-69
2022/09/06 00:57:54;;;;;;;;;;;21.10;99.90;;;;;;5068424;28;19974;-69
2022/09/06 01:00:21;;;;;;;;;;;21.10;99.90;;;;;;5071723;28;19931;-70
2022/09/06 01:02:48;;;;;;;;;;;21.10;99.90;;;;;;5089074;28;19939;-69
2022/09/06 01:05:15;;;;;;;;;;;21.10;99.90;;;;;;5081326;28;19924;-69
2022/09/06 01:07:46;;;;;;;;;;;21.00;99.90;;;;;;5068627;28;19928;-69
2022/09/06 01:10:23;;;;;;;;;;;21.00;99.90;;;;;;5077447;28;19977;-69
2022/09/06 01:12:54;;;;;;;;;;;21.00;99.90;;;;;;5084635;28;19924;-69
2022/09/06 01:15:28;;;;;;;;;;;21.10;99.90;;;;;;5094009;28;19928;-69
2022/09/06 01:17:59;;;;;;;;;;;21.10;99.90;;;;;;5074839;28;20006;-70
2022/09/06 01:20:33;;;;;;;;;;;21.10;99.90;;;;;;5060690;28;19929;-70
2022/09/06 01:23:17;;;;;;;;;;;21.20;99.90;;;;;;5068443;28;20428;-70
2022/09/06 01:25:50;;;;;;;;;;;21.20;99.90;;;;;;5069115;28;20325;-70
2022/09/06 01:28:30;;;;;;;;;;;21.20;99.90;;;;;;5066901;28;19928;-70
2022/09/06 01:31:00;;;;;;;;;;;21.20;99.90;;;;;;5067645;28;19995;-69
2022/09/06 01:33:32;;;;;;;;;;;21.20;99.90;;;;;;5067930;28;19928;-69
2022/09/06 01:36:01;;;;;;;;;;;21.30;99.90;;;;;;5067952;28;19932;-69
2022/09/06 01:38:28;;;;;;;;;;;21.30;99.90;;;;;;5067567;28;19933;-69
2022/09/06 01:40:55;;;;;;;;;;;21.30;99.90;;;;;;5067665;28;20007;-69
2022/09/06 01:43:23;;;;;;;;;;;21.30;99.90;;;;;;5067515;28;20026;-69
2022/09/06 01:45:55;;;;;;;;;;;21.30;99.90;;;;;;5067402;28;19932;-69
2022/09/06 01:48:24;;;;;;;;;;;21.20;99.90;;;;;;5059635;28;19925;-69
2022/09/06 01:50:58;;;;;;;;;;;21.20;99.90;;;;;;5066166;28;20408;-69
2022/09/06 01:53:31;;;;;;;;;;;21.20;99.90;;;;;;5059754;28;19983;-69
2022/09/06 01:56:01;;;;;;;;;;;21.20;99.90;;;;;;5064803;28;19932;-69
2022/09/06 01:58:37;;;;;;;;;;;21.10;99.90;;;;;;5061445;28;19939;-69
2022/09/06 02:01:09;;;;;;;;;;;21.00;99.90;;;;;;5067640;28;19925;-70
2022/09/06 02:03:38;;;;;;;;;;;21.00;99.90;;;;;;5067754;28;20300;-69
2022/09/06 02:06:07;;;;;;;;;;;20.90;99.90;;;;;;5066168;28;19928;-69
2022/09/06 02:08:36;;;;;;;;;;;21.40;99.90;;;;;;5066896;28;19928;-69
2022/09/06 02:11:04;;;;;;;;;;;20.70;99.90;;;;;;5076930;28;20456;-69
2022/09/06 02:13:33;;;;;;;;;;;20.60;99.90;;;;;;5066157;28;20351;-69
2022/09/06 02:16:01;;;;;;;;;;;20.50;99.90;;;;;;5062655;28;19929;-69
2022/09/06 02:18:31;;;;;;;;;;;20.50;99.90;;;;;;5067165;28;19932;-69
2022/09/06 02:20:58;;;;;;;;;;;20.40;99.90;;;;;;5065918;28;19935;-68
2022/09/06 02:23:27;;;;;;;;;;;20.40;99.90;;;;;;5058035;28;19929;-69
2022/09/06 02:25:55;;;;;;;;;;;20.40;99.90;;;;;;5060533;28;19935;-69
2022/09/06 02:28:22;;;;;;;;;;;20.30;99.90;;;;;;5063449;28;19925;-69
2022/09/06 02:30:50;;;;;;;;;;;20.30;99.90;;;;;;5070124;28;19930;-69
2022/09/06 02:33:19;;;;;;;;;;;20.20;99.90;;;;;;5071455;28;19932;-69
2022/09/06 02:35:48;;;;;;;;;;;20.20;99.90;;;;;;5071385;28;19936;-69
2022/09/06 02:38:15;;;;;;;;;;;20.10;99.90;;;;;;5057208;28;19925;-69
2022/09/06 02:40:42;;;;;;;;;;;20.10;99.90;;;;;;5077568;28;19932;-69
2022/09/06 02:43:09;;;;;;;;;;;20.10;99.90;;;;;;5072653;28;20093;-69
2022/09/06 02:45:36;;;;;;;;;;;20.00;99.90;;;;;;5069567;28;19928;-69
2022/09/06 02:48:03;;;;;;;;;;;20.00;99.90;;;;;;5071283;28;19931;-69
2022/09/06 02:50:29;;;;;;;;;;;19.90;99.90;;;;;;5070765;28;20246;-69
2022/09/06 02:53:04;;;;;;;;;;;19.80;99.90;;;;;;5071357;28;20366;-69
2022/09/06 02:55:31;;;;;;;;;;;19.70;99.90;;;;;;5071048;28;19925;-69
2022/09/06 02:57:58;;;;;;;;;;;19.70;99.90;;;;;;5071047;28;19928;-69
2022/09/06 03:00:25;;;;;;;;;;;19.60;99.90;;;;;;5053358;28;20297;-70
2022/09/06 03:02:51;;;;;;;;;;;19.60;99.90;;;;;;5070847;28;19963;-70
2022/09/06 03:05:18;;;;;;;;;;;19.50;99.90;;;;;;5070500;28;19936;-70
2022/09/06 03:07:45;;;;;;;;;;;19.50;99.90;;;;;;5070906;28;19993;-70
2022/09/06 03:10:12;;;;;;;;;;;19.40;99.90;;;;;;5078608;28;19924;-70
2022/09/06 03:12:39;;;;;;;;;;;19.40;99.90;;;;;;5080761;28;19928;-69
2022/09/06 03:15:06;;;;;;;;;;;19.40;99.90;;;;;;5070721;28;19936;-69
2022/09/06 03:17:33;;;;;;;;;;;19.30;99.90;;;;;;5073813;28;19996;-69
2022/09/06 03:19:59;;;;;;;;;;;19.20;99.90;;;;;;5071169;28;19929;-69
2022/09/06 03:22:26;;;;;;;;;;;19.20;99.90;;;;;;5070541;28;20402;-69
2022/09/06 03:24:53;;;;;;;;;;;19.10;99.90;;;;;;5070487;28;19948;-69
2022/09/06 03:27:21;;;;;;;;;;;19.10;99.90;;;;;;5070668;28;19928;-69
2022/09/06 03:29:47;;;;;;;;;;;19.10;99.90;;;;;;5069140;28;19955;-67
2022/09/06 03:32:14;;;;;;;;;;;19.10;99.90;;;;;;5070117;28;20004;-69
2022/09/06 03:34:41;;;;;;;;;;;19.10;99.90;;;;;;5070512;28;19929;-69
2022/09/06 03:37:08;;;;;;;;;;;19.10;99.90;;;;;;5069937;28;20030;-69
2022/09/06 03:39:35;;;;;;;;;;;19.10;99.90;;;;;;5069096;28;19997;-69
2022/09/06 03:42:01;;;;;;;;;;;19.10;99.90;;;;;;5060330;28;19977;-69
2022/09/06 03:44:29;;;;;;;;;;;19.00;99.90;;;;;;5069581;28;19924;-68
2022/09/06 03:46:56;;;;;;;;;;;19.10;99.90;;;;;;5069815;28;19932;-69
2022/09/06 03:49:23;;;;;;;;;;;19.10;99.90;;;;;;5069723;28;19974;-69
2022/09/06 03:51:49;;;;;;;;;;;19.00;99.90;;;;;;5069927;28;19932;-70
2022/09/06 03:54:16;;;;;;;;;;;19.00;99.90;;;;;;5070454;28;19928;-69
2022/09/06 03:56:43;;;;;;;;;;;19.00;99.90;;;;;;5069865;28;20029;-70
2022/09/06 03:59:09;;;;;;;;;;;19.00;99.90;;;;;;5069028;28;19936;-70
2022/09/06 04:01:37;;;;;;;;;;;19.00;99.90;;;;;;5070016;28;19931;-69
2022/09/06 04:04:04;;;;;;;;;;;19.00;99.90;;;;;;5069870;28;19932;-69
2022/09/06 04:06:31;;;;;;;;;;;19.00;99.90;;;;;;5096960;22;20023;-71
2022/09/06 04:08:58;;;;;;;;;;;19.30;99.90;;;;;;5082114;28;19936;-70
2022/09/06 04:11:24;;;;;;;;;;;19.00;99.90;;;;;;5073068;28;19967;-70
2022/09/06 04:13:51;;;;;;;;;;;19.00;99.90;;;;;;5085713;28;19928;-71
2022/09/06 04:16:18;;;;;;;;;;;19.00;99.90;;;;;;5079906;28;19928;-71
2022/09/06 04:18:46;;;;;;;;;;;19.00;99.90;;;;;;5082613;28;19925;-70
2022/09/06 04:21:13;;;;;;;;;;;19.00;99.90;;;;;;5079365;28;19924;-70
2022/09/06 04:23:39;;;;;;;;;;;19.00;99.90;;;;;;5082134;28;19959;-69
2022/09/06 04:26:06;;;;;;;;;;;19.00;99.90;;;;;;5088700;28;19936;-70
2022/09/06 04:28:33;;;;;;;;;;;18.10;99.90;;;;;;5063325;28;19930;-70
2022/09/06 04:31:00;;;;;;;;;;;19.00;99.90;;;;;;5077087;28;19965;-70
2022/09/06 04:33:28;;;;;;;;;;;18.90;99.90;;;;;;5078333;28;19932;-70
2022/09/06 04:35:57;;;;;;;;;;;18.90;99.90;;;;;;5088504;28;19956;-70
2022/09/06 04:38:23;;;;;;;;;;;18.90;99.90;;;;;;5069754;28;20366;-71
2022/09/06 04:40:50;;;;;;;;;;;18.90;99.90;;;;;;5062953;28;19936;-70
2022/09/06 04:43:17;;;;;;;;;;;18.90;99.90;;;;;;5083034;28;19935;-70
2022/09/06 04:45:44;;;;;;;;;;;18.90;99.90;;;;;;5050254;28;19935;-70
2022/09/06 04:48:11;;;;;;;;;;;18.90;99.90;;;;;;5079186;28;19928;-71
2022/09/06 04:50:38;;;;;;;;;;;18.90;99.90;;;;;;5062213;28;19935;-70
2022/09/06 04:53:06;;;;;;;;;;;18.90;99.90;;;;;;5069313;28;19976;-71
2022/09/06 04:55:33;;;;;;;;;;;18.80;99.90;;;;;;5086847;28;19938;-71
2022/09/06 04:58:00;;;;;;;;;;;18.90;99.90;;;;;;5078644;28;20005;-71
2022/09/06 05:00:27;;;;;;;;;;;18.90;99.90;;;;;;5051413;28;19924;-71
2022/09/06 05:02:55;;;;;;;;;;;18.90;99.90;;;;;;5086529;28;19936;-71
2022/09/06 05:05:22;;;;;;;;;;;18.80;99.90;;;;;;5069845;28;19932;-71
2022/09/06 05:07:51;;;;;;;;;;;18.80;99.90;;;;;;5056050;28;19981;-71
2022/09/06 05:10:19;;;;;;;;;;;18.80;99.90;;;;;;5087912;28;20392;-70
2022/09/06 05:12:47;;;;;;;;;;;18.80;99.90;;;;;;5087027;28;19939;-71
2022/09/06 05:15:14;;;;;;;;;;;18.80;99.90;;;;;;5087199;28;19928;-72
2022/09/06 05:17:41;;;;;;;;;;;18.80;99.90;;;;;;5086434;28;20369;-73
2022/09/06 05:20:08;;;;;;;;;;;18.70;99.90;;;;;;5061116;28;20305;-74
2022/09/06 05:22:35;;;;;;;;;;;18.70;99.90;;;;;;5057836;28;20322;-74
2022/09/06 05:25:02;;;;;;;;;;;18.60;99.90;;;;;;5068427;28;20004;-75
2022/09/06 05:27:30;;;;;;;;;;;18.60;99.90;;;;;;5073435;28;19928;-76
2022/09/06 05:29:58;;;;;;;;;;;18.60;99.90;;;;;;5080411;28;19928;-75
2022/09/06 05:32:24;;;;;;;;;;;18.60;99.90;;;;;;5087924;28;19928;-73
2022/09/06 05:34:52;;;;;;;;;;;18.60;99.90;;;;;;5071509;28;19928;-71
2022/09/06 05:37:18;;;;;;;;;;;18.60;99.90;;;;;;5068601;28;19940;-72
2022/09/06 05:39:45;;;;;;;;;;;18.60;99.90;;;;;;5059545;28;19928;-71
2022/09/06 05:42:12;;;;;;;;;;;18.60;99.90;;;;;;5070043;28;20623;-72
2022/09/06 05:44:40;;;;;;;;;;;18.60;99.90;;;;;;5056943;28;19980;-73
2022/09/06 05:47:07;;;;;;;;;;;18.90;99.90;;;;;;5077881;28;20406;-72
2022/09/06 05:49:34;;;;;;;;;;;19.80;99.90;;;;;;5071722;28;19932;-73
2022/09/06 05:52:00;;;;;;;;;;;20.80;99.90;;;;;;5072071;28;20549;-73
2022/09/06 05:54:27;;;;;;;;;;;21.80;99.90;;;;;;5073205;28;19928;-74
2022/09/06 05:56:54;;;;;;;;;;;22.70;99.90;;;;;;5071057;28;19935;-72
2022/09/06 05:59:21;;;;;;;;;;;23.70;99.90;;;;;;5073644;28;19932;-75
2022/09/06 06:01:49;;;;;;;;;;;24.60;99.90;;;;;;5077982;28;19935;-73
2022/09/06 06:04:17;;;;;;;;;;;25.40;99.90;;;;;;5074907;28;19933;-72
2022/09/06 06:06:44;;;;;;;;;;;26.20;99.90;;;;;;5072990;28;19932;-74
2022/09/06 06:09:11;;;;;;;;;;;26.90;99.90;;;;;;5073481;28;19982;-76
2022/09/06 06:11:38;;;;;;;;;;;27.40;99.90;;;;;;5084833;28;19928;-73
2022/09/06 06:14:05;;;;;;;;;;;27.90;99.90;;;;;;5077345;28;20419;-73
2022/09/06 06:16:31;;;;;;;;;;;28.50;99.90;;;;;;5084222;28;19939;-78
2022/09/06 06:18:59;;;;;;;;;;;29.00;99.90;;;;;;5083174;28;20455;-73
2022/09/06 06:21:27;;;;;;;;;;;29.50;99.90;;;;;;5082734;28;20000;-73
2022/09/06 06:23:55;;;;;;;;;;;30.10;99.90;;;;;;5070133;28;20305;-74
2022/09/06 06:26:22;;;;;;;;;;;30.60;99.90;;;;;;5067032;28;19981;-71
2022/09/06 06:28:49;;;;;;;;;;;31.00;99.90;;;;;;5075896;28;19924;-71
2022/09/06 06:31:16;;;;;;;;;;;31.40;99.90;;;;;;5069124;28;19928;-69
2022/09/06 06:33:43;;;;;;;;;;;31.60;99.90;;;;;;5084450;28;19933;-71
2022/09/06 06:36:20;;;;;;;;;;;31.90;99.90;;;;;;5071193;28;19975;-71
2022/09/06 06:38:47;;;;;;;;;;;32.30;99.90;;;;;;5090696;28;19948;-71
2022/09/06 06:41:15;;;;;;;;;;;32.70;99.90;;;;;;5088429;28;19932;-71
2022/09/06 06:43:42;;;;;;;;;;;33.00;99.90;;;;;;5080910;28;19928;-72
2022/09/06 06:46:10;;;;;;;;;;;33.10;99.90;;;;;;5066083;28;19958;-72
2022/09/06 06:48:38;;;;;;;;;;;33.30;99.90;;;;;;5076853;28;19987;-72
2022/09/06 06:51:05;;;;;;;;;;;33.50;99.90;;;;;;5085800;28;19931;-72
2022/09/06 06:53:34;;;;;;;;;;;33.70;99.90;;;;;;5062316;28;19928;-72
2022/09/06 06:56:00;;;;;;;;;;;33.90;99.90;;;;;;5078771;28;19927;-72
2022/09/06 06:58:28;;;;;;;;;;;34.10;99.30;;;;;;5079214;28;20403;-72
2022/09/06 07:00:54;;;;;;;;;;;34.10;98.50;;;;;;5083410;28;20405;-71
2022/09/06 07:03:21;;;;;;;;;;;34.10;97.80;;;;;;5071815;28;19924;-72
2022/09/06 07:05:48;;;;;;;;;;;34.00;97.30;;;;;;5067474;28;19932;-72
2022/09/06 07:08:15;;;;;;;;;;;34.00;96.70;;;;;;5068063;28;20266;-72
2022/09/06 07:10:43;;;;;;;;;;;34.20;96.80;;;;;;5071720;28;19928;-72
2022/09/06 07:13:09;;;;;;;;;;;34.30;95.00;;;;;;5079136;28;19960;-71
2022/09/06 07:15:36;;;;;;;;;;;34.20;94.40;;;;;;5090657;28;20010;-71
2022/09/06 07:18:03;;;;;;;;;;;34.10;93.80;;;;;;5090373;28;19939;-71
2022/09/06 07:20:29;;;;;;;;;;;34.00;93.00;;;;;;5085039;28;19928;-71
2022/09/06 07:23:00;;;;;;;;;;;33.80;93.00;;;;;;5061445;28;19928;-70
2022/09/06 07:25:27;;;;;;;;;;;33.90;93.00;;;;;;5090063;28;19973;-71
2022/09/06 07:28:00;;;;;;;;;;;34.00;92.00;;;;;;5079822;28;20297;-72
2022/09/06 07:30:27;;;;;;;;;;;33.90;92.00;;;;;;5084304;28;19930;-76
2022/09/06 07:32:54;;;;;;;;;;;34.00;92.00;;;;;;5077500;28;19932;-75
2022/09/06 07:35:21;;;;;;;;;;;34.20;91.70;;;;;;5079214;28;19928;-75
2022/09/06 07:37:54;;;;;;;;;;;34.30;91.30;;;;;;5072529;28;20254;-75
2022/09/06 07:40:21;;;;;;;;;;;34.30;90.70;;;;;;5091758;28;19936;-76
2022/09/06 07:42:48;;;;;;;;;;;34.30;89.60;;;;;;5065766;28;19928;-74
2022/09/06 07:45:16;;;;;;;;;;;34.10;89.10;;;;;;5071351;28;19924;-74
2022/09/06 07:47:42;;;;;;;;;;;33.90;88.00;;;;;;5083520;28;19935;-75
2022/09/06 07:50:10;;;;;;;;;;;33.70;87.70;;;;;;5090131;28;19954;-77
2022/09/06 07:52:37;;;;;;;;;;;33.50;87.20;;;;;;5070386;28;19931;-75
2022/09/06 07:55:04;;;;;;;;;;;34.40;88.50;;;;;;5082450;28;19935;-75
2022/09/06 07:57:30;;;;;;;;;;;33.20;87.30;;;;;;5073080;28;20599;-74
2022/09/06 07:59:57;;;;;;;;;;;33.00;87.60;;;;;;5086507;28;19931;-76
2022/09/06 08:02:26;;;;;;;;;;;33.00;87.60;;;;;;5081146;28;19928;-74
2022/09/06 08:04:53;;;;;;;;;;;32.90;85.70;;;;;;5067079;28;19930;-74
2022/09/06 08:07:20;;;;;;;;;;;32.90;86.20;;;;;;5087775;28;20361;-73
2022/09/06 08:09:47;;;;;;;;;;;32.80;86.10;;;;;;5073605;28;20388;-74
2022/09/06 08:12:14;;;;;;;;;;;32.70;86.80;;;;;;5058476;28;19997;-75
2022/09/06 08:14:40;;;;;;;;;;;32.60;86.30;;;;;;5089610;28;19944;-74
2022/09/06 08:17:07;;;;;;;;;;;32.70;86.60;;;;;;5059961;28;20045;-75
2022/09/06 08:19:35;;;;;;;;;;;32.70;86.60;;;;;;5077765;28;19928;-74
2022/09/06 08:22:02;;;;;;;;;;;32.70;86.30;;;;;;5077468;28;19936;-75
2022/09/06 08:24:29;;;;;;;;;;;32.70;85.60;;;;;;5080394;28;19932;-74
2022/09/06 08:26:56;;;;;;;;;;;32.70;85.30;;;;;;5076390;28;19976;-74
2022/09/06 08:29:22;;;;;;;;;;;32.70;84.80;;;;;;5069718;28;19970;-74
2022/09/06 08:31:49;;;;;;;;;;;32.60;84.00;;;;;;5081857;28;19924;-74
2022/09/06 08:34:16;;;;;;;;;;;32.40;84.10;;;;;;5087225;28;21216;-76
2022/09/06 08:36:44;;;;;;;;;;;32.30;83.40;;;;;;5077874;28;20270;-74
2022/09/06 08:39:11;;;;;;;;;;;31.70;83.50;;;;;;5089242;28;19963;-74
2022/09/06 08:41:45;;;;;;;;;;;32.10;84.00;;;;;;5083471;28;19924;-75
2022/09/06 08:44:13;;;;;;;;;;;32.10;84.60;;;;;;5082771;28;20369;-75
2022/09/06 08:46:41;;;;;;;;;;;31.90;84.00;;;;;;5076277;28;19931;-72
2022/09/06 08:49:09;;;;;;;;;;;31.90;85.10;;;;;;5074508;28;19928;-73
2022/09/06 08:51:54;;;;;;;;;;;31.90;84.10;;;;;;5072382;28;19942;-74
2022/09/06 08:54:26;;;;;;;;;;;31.80;83.70;;;;;;5039283;28;20099;-73
2022/09/06 08:57:01;;;;;;;;;;;31.60;84.30;;;;;;5106071;28;19928;-70
2022/09/06 08:59:29;;;;;;;;;;;31.40;85.10;;;;;;5109834;28;20269;-71
2022/09/06 09:02:02;;;;;;;;;;;31.40;85.80;;;;;;5067522;28;20034;-70
2022/09/06 09:04:30;;;;;;;;;;;31.50;85.00;;;;;;5078196;28;20496;-71
2022/09/06 09:06:59;;;;;;;;;;;31.60;84.70;;;;;;5085366;28;19932;-71
2022/09/06 09:09:28;;;;;;;;;;;31.70;85.20;;;;;;5078413;28;20011;-71
2022/09/06 09:11:56;;;;;;;;;;;31.80;84.60;;;;;;5078094;28;19940;-71
2022/09/06 09:14:25;;;;;;;;;;;31.70;84.30;;;;;;5081720;28;20370;-70
2022/09/06 09:16:52;;;;;;;;;;;31.60;83.60;;;;;;5080065;28;19925;-72
2022/09/06 09:19:19;;;;;;;;;;;31.60;83.50;;;;;;5086911;28;19932;-72
2022/09/06 09:21:46;;;;;;;;;;;31.40;83.60;;;;;;5086773;28;20001;-72
2022/09/06 09:24:14;;;;;;;;;;;31.40;84.10;;;;;;5072256;28;19940;-73
2022/09/06 09:26:46;;;;;;;;;;;31.30;82.80;;;;;;5084455;28;20022;-73
2022/09/06 09:29:14;;;;;;;;;;;31.20;83.00;;;;;;5084000;28;19932;-72
2022/09/06 09:31:41;;;;;;;;;;;31.10;82.60;;;;;;5075851;28;19924;-72
2022/09/06 09:34:11;;;;;;;;;;;30.90;82.60;;;;;;5089253;28;19928;-72
2022/09/06 09:36:39;;;;;;;;;;;30.40;81.90;;;;;;5082139;28;19932;-72
2022/09/06 09:39:09;;;;;;;;;;;30.10;82.50;;;;;;5082086;28;20385;-72
2022/09/06 09:41:38;;;;;;;;;;;29.50;82.90;;;;;;5081225;28;19966;-72
2022/09/06 09:44:08;;;;;;;;;;;29.10;83.90;;;;;;5067587;28;19924;-72
2022/09/06 09:46:36;;;;;;;;;;;28.50;83.90;;;;;;5082702;28;19935;-73
2022/09/06 09:49:04;;;;;;;;;;;28.40;85.40;;;;;;5050467;28;19943;-72
2022/09/06 09:51:31;;;;;;;;;;;28.20;85.90;;;;;;5086776;28;19988;-72
2022/09/06 09:53:59;;;;;;;;;;;28.00;86.60;;;;;;5079814;28;19936;-72
2022/09/06 09:56:27;;;;;;;;;;;27.90;86.10;;;;;;5048935;28;19924;-73
2022/09/06 09:58:55;;;;;;;;;;;27.90;87.30;;;;;;5072790;28;19931;-72
2022/09/06 10:01:26;;;;;;;;;;;27.80;87.40;;;;;;5081342;28;19943;-72
2022/09/06 10:03:59;;;;;;;;;;;27.70;87.50;;;;;;5078809;28;19947;-72
2022/09/06 10:06:26;;;;;;;;;;;27.70;87.40;;;;;;5079766;28;19939;-73
2022/09/06 10:08:54;;;;;;;;;;;27.70;88.50;;;;;;5069270;28;19936;-72
2022/09/06 10:11:36;;;;;;;;;;;27.80;88.60;;;;;;5083027;28;20291;-73
2022/09/06 10:14:09;;;;;;;;;;;27.90;88.70;;;;;;5084398;28;19972;-72
2022/09/06 10:16:44;;;;;;;;;;;28.00;88.20;;;;;;5068670;28;20015;-72
2022/09/06 10:19:33;;;;;;;;;;;28.00;88.80;;;;;;5069458;28;19959;-69
2022/09/06 10:22:05;;;;;;;;;;;28.10;88.80;;;;;;5073379;28;19928;-70
2022/09/06 10:24:36;;;;;;;;;;;28.30;88.80;;;;;;5066982;28;20366;-69
2022/09/06 10:27:03;;;;;;;;;;;28.40;88.10;;;;;;5065930;28;19946;-69
2022/09/06 10:29:35;;;;;;;;;;;28.40;88.30;;;;;;5055040;28;20432;-69
2022/09/06 10:32:08;;;;;;;;;;;28.40;88.50;;;;;;5078548;28;19935;-69
2022/09/06 10:34:50;;;;;;;;;;;28.40;88.50;;;;;;5079012;28;19951;-70
2022/09/06 10:37:24;;;;;;;;;;;28.50;87.90;;;;;;5095726;22;19928;-80
2022/09/06 10:39:55;;;;;;;;;;;28.50;88.40;;;;;;5071915;28;20027;-80
2022/09/06 10:42:27;;;;;;;;;;;28.60;88.50;;;;;;5072124;28;20392;-82
2022/09/06 10:44:59;;;;;;;;;;;28.80;88.50;;;;;;5073716;28;19928;-82
2022/09/06 10:47:32;;;;;;;;;;;28.80;87.30;;;;;;5073894;28;19924;-82
2022/09/06 10:50:01;;;;;;;;;;;28.80;88.30;;;;;;5077932;28;19974;-82
2022/09/06 10:52:31;;;;;;;;;;;29.00;88.10;;;;;;5060175;28;19925;-82
2022/09/06 10:55:03;;;;;;;;;;;29.10;87.70;;;;;;5055256;28;19990;-81
2022/09/06 10:57:34;;;;;;;;;;;29.20;87.20;;;;;;5055896;28;19929;-81
2022/09/06 11:00:04;;;;;;;;;;;29.30;87.30;;;;;;5065332;28;19928;-82
2022/09/06 11:02:36;;;;;;;;;;;29.40;87.60;;;;;;5061901;28;19975;-82
2022/09/06 11:05:06;;;;;;;;;;;29.50;86.80;;;;;;5060918;28;19959;-82
2022/09/06 11:07:34;;;;;;;;;;;29.70;86.00;;;;;;5055484;28;19929;-82
2022/09/06 11:10:02;;;;;;;;;;;29.80;86.10;;;;;;5057426;28;19939;-81
2022/09/06 11:12:33;;;;;;;;;;;29.90;85.90;;;;;;5057503;28;20054;-81
2022/09/06 11:15:01;;;;;;;;;;;30.00;85.90;;;;;;5056703;28;19929;-82
2022/09/06 11:17:30;;;;;;;;;;;30.00;85.30;;;;;;5057947;28;19940;-81
2022/09/06 11:20:03;;;;;;;;;;;30.10;84.80;;;;;;5058970;28;19947;-81
2022/09/06 11:22:44;;;;;;;;;;;30.20;84.80;;;;;;5064978;28;19925;-82
2022/09/06 11:25:22;;;;;;;;;;;30.40;84.50;;;;;;5069589;28;19972;-80
2022/09/06 11:27:51;;;;;;;;;;;30.50;84.90;;;;;;5082931;28;19935;-81
2022/09/06 11:30:18;;;;;;;;;;;30.60;85.00;;;;;;5055964;28;19933;-81
2022/09/06 11:32:48;;;;;;;;;;;30.70;84.50;;;;;;5054557;28;19929;-82
2022/09/06 11:35:23;;;;;;;;;;;30.90;83.80;;;;;;5071728;28;19942;-81
2022/09/06 11:37:58;;;;;;;;;;;30.90;84.10;;;;;;5066260;28;20402;-82
2022/09/06 11:40:26;;;;;;;;;;;31.00;83.50;;;;;;5056634;28;19928;-81
2022/09/06 11:43:10;;;;;;;;;;;31.00;82.80;;;;;;5055437;28;19931;-81
2022/09/06 11:45:41;;;;;;;;;;;30.70;82.80;;;;;;5068277;28;19929;-81
2022/09/06 11:48:32;;;;;;;;;;;30.80;83.10;;;;;;5048743;28;19960;-82
2022/09/06 11:51:11;;;;;;;;;;;30.80;83.50;;;;;;5055808;28;19933;-81
2022/09/06 11:53:52;;;;;;;;;;;31.10;82.60;;;;;;5060818;28;19951;-80
2022/09/06 11:56:25;;;;;;;;;;;31.20;82.10;;;;;;5057907;28;20375;-81
2022/09/06 11:58:56;;;;;;;;;;;31.40;82.10;;;;;;5051236;28;19940;-80
2022/09/06 12:01:39;;;;;;;;;;;31.50;81.70;;;;;;5043631;28;19983;-81
2022/09/06 12:04:10;;;;;;;;;;;31.50;81.40;;;;;;5051964;28;20256;-83
2022/09/06 12:06:40;;;;;;;;;;;31.60;81.20;;;;;;5055221;28;19961;-83
2022/09/06 12:09:25;;;;;;;;;;;31.70;80.90;;;;;;5053242;28;19945;-84
2022/09/06 12:11:55;;;;;;;;;;;31.80;80.90;;;;;;5050544;28;19928;-83
2022/09/06 12:14:38;;;;;;;;;;;31.80;80.50;;;;;;5058557;28;20028;-83
2022/09/06 12:17:26;;;;;;;;;;;31.90;80.60;;;;;;5046372;28;19932;-82
2022/09/06 12:19:56;;;;;;;;;;;31.90;80.50;;;;;;5053078;28;19995;-82
2022/09/06 12:22:42;;;;;;;;;;;31.90;80.40;;;;;;5055774;28;19933;-83
2022/09/06 12:25:17;;;;;;;;;;;32.10;80.30;;;;;;5065656;28;19932;-83
2022/09/06 12:27:50;;;;;;;;;;;32.10;80.80;;;;;;5072201;28;19938;-84
2022/09/06 12:30:30;;;;;;;;;;;32.20;80.80;;;;;;5069123;28;19923;-83
2022/09/06 12:32:58;;;;;;;;;;;32.40;80.70;;;;;;5067319;28;19936;-83
2022/09/06 12:35:25;;;;;;;;;;;32.30;79.00;;;;;;5069558;28;19951;-83
2022/09/06 12:37:54;;;;;;;;;;;32.30;79.50;;;;;;5063427;28;19932;-83
2022/09/06 12:40:24;;;;;;;;;;;32.60;80.40;;;;;;5069171;28;19931;-82
2022/09/06 12:42:51;;;;;;;;;;;32.30;79.40;;;;;;5057145;28;19928;-83
2022/09/06 12:45:18;;;;;;;;;;;32.20;79.50;;;;;;5062701;28;19936;-82
2022/09/06 12:47:45;;;;;;;;;;;31.90;79.60;;;;;;5056564;28;19982;-82
2022/09/06 12:50:17;;;;;;;;;;;32.30;79.00;;;;;;5054591;28;19971;-82
2022/09/06 12:52:48;;;;;;;;;;;32.30;79.60;;;;;;5050469;28;19935;-83
2022/09/06 12:55:17;;;;;;;;;;;32.20;78.80;;;;;;5061772;28;19936;-83
2022/09/06 12:57:50;;;;;;;;;;;32.20;79.20;;;;;;5055554;28;19924;-83
2022/09/06 13:00:17;;;;;;;;;;;32.20;79.00;;;;;;5055783;28;20043;-83
2022/09/06 13:02:47;;;;;;;;;;;32.20;79.40;;;;;;5055913;28;19925;-84
2022/09/06 13:05:16;;;;;;;;;;;32.20;78.70;;;;;;5055691;28;20408;-84
2022/09/06 13:07:44;;;;;;;;;;;32.20;79.00;;;;;;5051651;28;19925;-81
2022/09/06 13:10:13;;;;;;;;;;;32.40;78.80;;;;;;5051926;28;20015;-81
2022/09/06 13:12:42;;;;;;;;;;;32.40;78.60;;;;;;5051996;28;19933;-81
2022/09/06 13:15:19;;;;;;;;;;;32.40;77.80;;;;;;5051346;28;19932;-83
2022/09/06 13:17:46;;;;;;;;;;;32.50;78.40;;;;;;5052305;28;19940;-81
2022/09/06 13:20:14;;;;;;;;;;;32.50;77.00;;;;;;5057032;28;19967;-82
2022/09/06 13:22:43;;;;;;;;;;;32.50;77.60;;;;;;5055580;28;19936;-81
2022/09/06 13:25:14;;;;;;;;;;;32.60;77.50;;;;;;5059009;28;19935;-82
2022/09/06 13:27:45;;;;;;;;;;;32.60;78.00;;;;;;5062684;28;19936;-82
2022/09/06 13:30:34;;;;;;;;;;;32.60;78.20;;;;;;5053619;28;19929;-82
2022/09/06 13:33:01;;;;;;;;;;;32.80;77.90;;;;;;5060175;28;19929;-82
2022/09/06 13:35:29;;;;;;;;;;;32.90;77.60;;;;;;5065109;28;19925;-85
2022/09/06 13:38:11;;;;;;;;;;;33.10;77.40;;;;;;5060875;28;19925;-82
2022/09/06 13:40:40;;;;;;;;;;;33.10;75.90;;;;;;5059188;28;19936;-82
2022/09/06 13:43:09;;;;;;;;;;;33.10;75.50;;;;;;5060258;28;20179;-82
2022/09/06 13:45:37;;;;;;;;;;;33.10;74.20;;;;;;5085633;28;19928;-85
2022/09/06 13:48:04;;;;;;;;;;;33.10;73.20;;;;;;5084028;28;20632;-82
2022/09/06 13:50:31;;;;;;;;;;;33.10;72.30;;;;;;5075358;28;19928;-83
2022/09/06 13:52:58;;;;;;;;;;;33.10;71.70;;;;;;5068692;28;20015;-82
2022/09/06 13:55:28;;;;;;;;;;;33.00;71.80;;;;;;5066172;28;19948;-83
2022/09/06 13:57:55;;;;;;;;;;;33.10;71.70;;;;;;5064185;28;19925;-82
2022/09/06 14:00:21;;;;;;;;;;;33.10;71.20;;;;;;5064964;28;19952;-82
2022/09/06 14:02:50;;;;;;;;;;;33.00;71.10;;;;;;5075654;28;20273;-82
2022/09/06 14:05:17;;;;;;;;;;;32.60;71.10;;;;;;5087414;28;19960;-83
2022/09/06 14:07:44;;;;;;;;;;;32.60;71.40;;;;;;5089446;28;19928;-83
2022/09/06 14:10:11;;;;;;;;;;;32.50;70.10;;;;;;5056936;28;19953;-83
2022/09/06 14:12:38;;;;;;;;;;;32.40;68.70;;;;;;5056229;28;20063;-83
2022/09/06 14:15:05;;;;;;;;;;;32.40;63.80;;;;;;5050014;28;19924;-83
2022/09/06 14:17:32;;;;;;;;;;;32.40;63.90;;;;;;5044888;28;19928;-83
2022/09/06 14:20:00;;;;;;;;;;;32.20;61.30;;;;;;5058959;28;19969;-83
2022/09/06 14:22:27;;;;;;;;;;;32.20;62.80;;;;;;5078685;28;19932;-83
2022/09/06 14:24:54;;;;;;;;;;;32.20;63.20;;;;;;5069135;28;19924;-83
2022/09/06 14:27:21;;;;;;;;;;;32.20;63.70;;;;;;5058081;28;19956;-83